sensor_id;sensor_type;location;lat;lon;timestamp;temperature;humidity
74484;SHT31;62942;52.462;10.846;2023-11-19T00:00:32;5.4;94.4
74484;SHT31;62942;52.462;10.846;2023-11-19T00:01:42;5.3;94.5
74484;SHT31;62942;52.462;10.846;2023-11-19T00:02:52;5.3;94.5
74484;SHT31;62942;52.462;10.846;2023-11-19T00:03:52;5.3;94.5
74484;SHT31;62942;52.462;10.846;2023-11-19T00:04:52;5.3;94.5
74484;SHT31;62942;52.462;10.846;2023-11-19T00:06:02;5.3;94.6
74484;SHT31;62942;52.462;10.846;2023-11-19T00:07:02;5.3;94.6
74484;SHT31;62942;52.462;10.846;2023-11-19T00:08:12;5.3;94.6
74484;SHT31;62942;52.462;10.846;2023-11-19T00:09:12;5.3;94.7
74484;SHT31;62942;52.462;10.846;2023-11-19T00:10:22;5.3;94.6
74484;SHT31;62942;52.462;10.846;2023-11-19T00:11:22;5.3;94.7
74484;SHT31;62942;52.462;10.846;2023-11-19T00:12:32;5.3;94.7
74484;SHT31;62942;52.462;10.846;2023-11-19T00:13:42;5.3;94.7
74484;SHT31;62942;52.462;10.846;2023-11-19T00:14:42;5.3;94.7
74484;SHT31;62942;52.462;10.846;2023-11-19T00:15:52;5.4;94.7
74484;SHT31;62942;52.462;10.846;2023-11-19T00:16:52;5.3;94.7
74484;SHT31;62942;52.462;10.846;2023-11-19T00:18:02;5.4;94.8
74484;SHT31;62942;52.462;10.846;2023-11-19T00:19:02;5.3;94.8
74484;SHT31;62942;52.462;10.846;2023-11-19T00:20:12;5.3;94.8
74484;SHT31;62942;52.462;10.846;2023-11-19T00:21:12;5.3;94.7
74484;SHT31;62942;52.462;10.846;2023-11-19T00:22:22;5.4;94.8
74484;SHT31;62942;52.462;10.846;2023-11-19T00:23:22;5.4;94.8
74484;SHT31;62942;52.462;10.846;2023-11-19T00:24:22;5.4;94.8
74484;SHT31;62942;52.462;10.846;2023-11-19T00:25:32;5.4;94.8
74484;SHT31;62942;52.462;10.846;2023-11-19T00:26:32;5.4;94.8
74484;SHT31;62942;52.462;10.846;2023-11-19T00:27:42;5.4;94.8
74484;SHT31;62942;52.462;10.846;2023-11-19T00:28:52;5.4;94.9
74484;SHT31;62942;52.462;10.846;2023-11-19T00:29:52;5.4;94.9
74484;SHT31;62942;52.462;10.846;2023-11-19T00:30:52;5.4;94.9
74484;SHT31;62942;52.462;10.846;2023-11-19T00:32:02;5.4;94.9
74484;SHT31;62942;52.462;10.846;2023-11-19T00:33:12;5.4;94.9
74484;SHT31;62942;52.462;10.846;2023-11-19T00:34:22;5.4;94.9
74484;SHT31;62942;52.462;10.846;2023-11-19T00:35:22;5.4;95
74484;SHT31;62942;52.462;10.846;2023-11-19T00:36:32;5.4;94.9
74484;SHT31;62942;52.462;10.846;2023-11-19T00:37:32;5.4;94.9
74484;SHT31;62942;52.462;10.846;2023-11-19T00:38:42;5.4;95
74484;SHT31;62942;52.462;10.846;2023-11-19T00:39:52;5.4;95
74484;SHT31;62942;52.462;10.846;2023-11-19T00:40:52;5.4;95.1
74484;SHT31;62942;52.462;10.846;2023-11-19T00:41:52;5.4;95.1
74484;SHT31;62942;52.462;10.846;2023-11-19T00:43:02;5.4;95.2
74484;SHT31;62942;52.462;10.846;2023-11-19T00:44:02;5.4;95.2
74484;SHT31;62942;52.462;10.846;2023-11-19T00:45:12;5.4;95.2
74484;SHT31;62942;52.462;10.846;2023-11-19T00:46:12;5.4;95.2
74484;SHT31;62942;52.462;10.846;2023-11-19T00:47:12;5.4;95.3
74484;SHT31;62942;52.462;10.846;2023-11-19T00:48:22;5.4;95.3
74484;SHT31;62942;52.462;10.846;2023-11-19T00:49:32;5.4;95.3
74484;SHT31;62942;52.462;10.846;2023-11-19T00:50:42;5.3;95.4
74484;SHT31;62942;52.462;10.846;2023-11-19T00:51:42;5.4;95.3
74484;SHT31;62942;52.462;10.846;2023-11-19T00:52:42;5.4;95.3
74484;SHT31;62942;52.462;10.846;2023-11-19T00:53:52;5.4;95.4
74484;SHT31;62942;52.462;10.846;2023-11-19T00:54:52;5.4;95.5
74484;SHT31;62942;52.462;10.846;2023-11-19T00:55:52;5.4;95.4
74484;SHT31;62942;52.462;10.846;2023-11-19T00:56:52;5.4;95.4
74484;SHT31;62942;52.462;10.846;2023-11-19T00:58:02;5.4;95.4
74484;SHT31;62942;52.462;10.846;2023-11-19T00:59:12;5.4;95.4
74484;SHT31;62942;52.462;10.846;2023-11-19T01:00:22;5.4;95.4
74484;SHT31;62942;52.462;10.846;2023-11-19T01:01:22;5.4;95.4
74484;SHT31;62942;52.462;10.846;2023-11-19T01:02:32;5.4;95.3
74484;SHT31;62942;52.462;10.846;2023-11-19T01:03:32;5.4;95.3
74484;SHT31;62942;52.462;10.846;2023-11-19T01:04:42;5.4;95.3
74484;SHT31;62942;52.462;10.846;2023-11-19T01:05:42;5.4;95.3
74484;SHT31;62942;52.462;10.846;2023-11-19T01:06:52;5.4;95.3
74484;SHT31;62942;52.462;10.846;2023-11-19T01:08:02;5.4;95.3
74484;SHT31;62942;52.462;10.846;2023-11-19T01:09:12;5.4;95.2
74484;SHT31;62942;52.462;10.846;2023-11-19T01:10:22;5.4;95.3
74484;SHT31;62942;52.462;10.846;2023-11-19T01:11:22;5.4;95.3
74484;SHT31;62942;52.462;10.846;2023-11-19T01:12:22;5.4;95.3
74484;SHT31;62942;52.462;10.846;2023-11-19T01:13:22;5.4;95.3
74484;SHT31;62942;52.462;10.846;2023-11-19T01:14:32;5.4;95.3
74484;SHT31;62942;52.462;10.846;2023-11-19T01:15:32;5.4;95.3
74484;SHT31;62942;52.462;10.846;2023-11-19T01:16:42;5.4;95.3
74484;SHT31;62942;52.462;10.846;2023-11-19T01:17:52;5.4;95.3
74484;SHT31;62942;52.462;10.846;2023-11-19T01:19:02;5.4;95.3
74484;SHT31;62942;52.462;10.846;2023-11-19T01:20:02;5.4;95.3
74484;SHT31;62942;52.462;10.846;2023-11-19T01:21:12;5.4;95.3
74484;SHT31;62942;52.462;10.846;2023-11-19T01:22:12;5.5;95.4
74484;SHT31;62942;52.462;10.846;2023-11-19T01:23:22;5.4;95.4
74484;SHT31;62942;52.462;10.846;2023-11-19T01:24:32;5.4;95.3
74484;SHT31;62942;52.462;10.846;2023-11-19T01:25:32;5.4;95.4
74484;SHT31;62942;52.462;10.846;2023-11-19T01:26:43;5.4;95.4
74484;SHT31;62942;52.462;10.846;2023-11-19T01:27:52;5.5;95.4
74484;SHT31;62942;52.462;10.846;2023-11-19T01:28:52;5.5;95.3
74484;SHT31;62942;52.462;10.846;2023-11-19T01:30:02;5.5;95.4
74484;SHT31;62942;52.462;10.846;2023-11-19T01:31:02;5.5;95.4
74484;SHT31;62942;52.462;10.846;2023-11-19T01:32:12;5.5;95.4
74484;SHT31;62942;52.462;10.846;2023-11-19T01:33:12;5.5;95.4
74484;SHT31;62942;52.462;10.846;2023-11-19T01:34:12;5.5;95.4
74484;SHT31;62942;52.462;10.846;2023-11-19T01:35:22;5.5;95.4
74484;SHT31;62942;52.462;10.846;2023-11-19T01:36:32;5.5;95.3
74484;SHT31;62942;52.462;10.846;2023-11-19T01:37:42;5.5;95.4
74484;SHT31;62942;52.462;10.846;2023-11-19T01:38:52;5.5;95.4
74484;SHT31;62942;52.462;10.846;2023-11-19T01:39:52;5.5;95.4
74484;SHT31;62942;52.462;10.846;2023-11-19T01:41:02;5.5;95.4
74484;SHT31;62942;52.462;10.846;2023-11-19T01:42:12;5.5;95.3
74484;SHT31;62942;52.462;10.846;2023-11-19T01:43:38;5.5;95.3
74484;SHT31;62942;52.462;10.846;2023-11-19T01:44:22;5.5;95.3
74484;SHT31;62942;52.462;10.846;2023-11-19T01:45:29;5.5;95.3
74484;SHT31;62942;52.462;10.846;2023-11-19T01:46:22;5.5;95.3
74484;SHT31;62942;52.462;10.846;2023-11-19T01:47:32;5.5;95.3
74484;SHT31;62942;52.462;10.846;2023-11-19T01:48:32;5.6;95.3
74484;SHT31;62942;52.462;10.846;2023-11-19T01:49:42;5.6;95.3
74484;SHT31;62942;52.462;10.846;2023-11-19T01:50:42;5.6;95.2
74484;SHT31;62942;52.462;10.846;2023-11-19T01:51:42;5.6;95.2
74484;SHT31;62942;52.462;10.846;2023-11-19T01:52:52;5.6;95.2
74484;SHT31;62942;52.462;10.846;2023-11-19T01:53:52;5.6;95.2
74484;SHT31;62942;52.462;10.846;2023-11-19T01:55:02;5.6;95.2
74484;SHT31;62942;52.462;10.846;2023-11-19T01:56:13;5.6;95.2
74484;SHT31;62942;52.462;10.846;2023-11-19T01:57:12;5.6;95.2
74484;SHT31;62942;52.462;10.846;2023-11-19T01:58:22;5.6;95.2
74484;SHT31;62942;52.462;10.846;2023-11-19T01:59:32;5.6;95.2
74484;SHT31;62942;52.462;10.846;2023-11-19T02:00:33;5.6;95.2
74484;SHT31;62942;52.462;10.846;2023-11-19T02:01:32;5.6;95.1
74484;SHT31;62942;52.462;10.846;2023-11-19T02:02:42;5.6;95.1
74484;SHT31;62942;52.462;10.846;2023-11-19T02:03:42;5.6;95.1
74484;SHT31;62942;52.462;10.846;2023-11-19T02:04:52;5.6;95.1
74484;SHT31;62942;52.462;10.846;2023-11-19T02:06:02;5.6;95.1
74484;SHT31;62942;52.462;10.846;2023-11-19T02:07:12;5.6;95.1
74484;SHT31;62942;52.462;10.846;2023-11-19T02:08:22;5.6;95.1
74484;SHT31;62942;52.462;10.846;2023-11-19T02:09:32;5.7;95.1
74484;SHT31;62942;52.462;10.846;2023-11-19T02:10:32;5.7;95.1
74484;SHT31;62942;52.462;10.846;2023-11-19T02:11:42;5.7;95.1
74484;SHT31;62942;52.462;10.846;2023-11-19T02:12:52;5.7;95.1
74484;SHT31;62942;52.462;10.846;2023-11-19T02:13:52;5.7;95.1
74484;SHT31;62942;52.462;10.846;2023-11-19T02:15:02;5.7;95.1
74484;SHT31;62942;52.462;10.846;2023-11-19T02:16:12;5.7;95.1
74484;SHT31;62942;52.462;10.846;2023-11-19T02:17:24;5.7;95
74484;SHT31;62942;52.462;10.846;2023-11-19T02:18:32;5.7;95.1
74484;SHT31;62942;52.462;10.846;2023-11-19T02:19:32;5.7;95.1
74484;SHT31;62942;52.462;10.846;2023-11-19T02:20:42;5.8;95.1
74484;SHT31;62942;52.462;10.846;2023-11-19T02:21:52;5.8;95.1
74484;SHT31;62942;52.462;10.846;2023-11-19T02:23:02;5.7;95.1
74484;SHT31;62942;52.462;10.846;2023-11-19T02:24:13;5.7;95.1
74484;SHT31;62942;52.462;10.846;2023-11-19T02:25:22;5.7;95.1
74484;SHT31;62942;52.462;10.846;2023-11-19T02:26:33;5.8;95.1
74484;SHT31;62942;52.462;10.846;2023-11-19T02:27:46;5.8;95.1
74484;SHT31;62942;52.462;10.846;2023-11-19T02:28:52;5.8;95.1
74484;SHT31;62942;52.462;10.846;2023-11-19T02:30:02;5.8;95.2
74484;SHT31;62942;52.462;10.846;2023-11-19T02:31:12;5.8;95.2
74484;SHT31;62942;52.462;10.846;2023-11-19T02:32:22;5.8;95.1
74484;SHT31;62942;52.462;10.846;2023-11-19T02:33:22;5.8;95.1
74484;SHT31;62942;52.462;10.846;2023-11-19T02:34:32;5.8;95.2
74484;SHT31;62942;52.462;10.846;2023-11-19T02:35:32;5.8;95.2
74484;SHT31;62942;52.462;10.846;2023-11-19T02:36:42;5.8;95.2
74484;SHT31;62942;52.462;10.846;2023-11-19T02:37:52;5.9;95.2
74484;SHT31;62942;52.462;10.846;2023-11-19T02:39:02;5.9;95.2
74484;SHT31;62942;52.462;10.846;2023-11-19T02:40:12;5.8;95.2
74484;SHT31;62942;52.462;10.846;2023-11-19T02:41:22;5.9;95.2
74484;SHT31;62942;52.462;10.846;2023-11-19T02:42:32;5.9;95.3
74484;SHT31;62942;52.462;10.846;2023-11-19T02:43:32;5.9;95.3
74484;SHT31;62942;52.462;10.846;2023-11-19T02:44:43;5.9;95.3
74484;SHT31;62942;52.462;10.846;2023-11-19T02:45:52;5.9;95.3
74484;SHT31;62942;52.462;10.846;2023-11-19T02:47:02;5.9;95.4
74484;SHT31;62942;52.462;10.846;2023-11-19T02:48:12;5.9;95.3
74484;SHT31;62942;52.462;10.846;2023-11-19T02:49:22;5.9;95.4
74484;SHT31;62942;52.462;10.846;2023-11-19T02:50:32;6;95.4
74484;SHT31;62942;52.462;10.846;2023-11-19T02:51:32;5.9;95.4
74484;SHT31;62942;52.462;10.846;2023-11-19T02:52:43;6;95.4
74484;SHT31;62942;52.462;10.846;2023-11-19T02:53:42;6;95.4
74484;SHT31;62942;52.462;10.846;2023-11-19T02:54:52;6;95.5
74484;SHT31;62942;52.462;10.846;2023-11-19T02:56:02;5.9;95.5
74484;SHT31;62942;52.462;10.846;2023-11-19T02:57:02;6;95.5
74484;SHT31;62942;52.462;10.846;2023-11-19T02:58:12;6;95.6
74484;SHT31;62942;52.462;10.846;2023-11-19T02:59:22;6;95.6
74484;SHT31;62942;52.462;10.846;2023-11-19T03:00:32;6;95.6
74484;SHT31;62942;52.462;10.846;2023-11-19T03:01:32;6;95.6
74484;SHT31;62942;52.462;10.846;2023-11-19T03:02:42;6;95.7
74484;SHT31;62942;52.462;10.846;2023-11-19T03:03:52;6;95.7
74484;SHT31;62942;52.462;10.846;2023-11-19T03:05:02;6;95.8
74484;SHT31;62942;52.462;10.846;2023-11-19T03:06:12;6;95.8
74484;SHT31;62942;52.462;10.846;2023-11-19T03:07:12;6;95.8
74484;SHT31;62942;52.462;10.846;2023-11-19T03:08:22;6;95.8
74484;SHT31;62942;52.462;10.846;2023-11-19T03:09:22;6;95.9
74484;SHT31;62942;52.462;10.846;2023-11-19T03:10:32;6;95.9
74484;SHT31;62942;52.462;10.846;2023-11-19T03:11:32;6;96
74484;SHT31;62942;52.462;10.846;2023-11-19T03:12:42;6;96
74484;SHT31;62942;52.462;10.846;2023-11-19T03:13:52;6;96
74484;SHT31;62942;52.462;10.846;2023-11-19T03:15:02;6;96
74484;SHT31;62942;52.462;10.846;2023-11-19T03:16:12;6;96.1
74484;SHT31;62942;52.462;10.846;2023-11-19T03:17:12;6;96.1
74484;SHT31;62942;52.462;10.846;2023-11-19T03:18:22;6;96.1
74484;SHT31;62942;52.462;10.846;2023-11-19T03:19:32;6;96.2
74484;SHT31;62942;52.462;10.846;2023-11-19T03:20:32;6;96.2
74484;SHT31;62942;52.462;10.846;2023-11-19T03:21:42;6;96.3
74484;SHT31;62942;52.462;10.846;2023-11-19T03:22:52;6;96.3
74484;SHT31;62942;52.462;10.846;2023-11-19T03:23:52;6;96.4
74484;SHT31;62942;52.462;10.846;2023-11-19T03:25:02;6;96.4
74484;SHT31;62942;52.462;10.846;2023-11-19T03:26:02;6;96.4
74484;SHT31;62942;52.462;10.846;2023-11-19T03:27:12;6;96.5
74484;SHT31;62942;52.462;10.846;2023-11-19T03:28:22;6;96.6
74484;SHT31;62942;52.462;10.846;2023-11-19T03:29:22;6;96.6
74484;SHT31;62942;52.462;10.846;2023-11-19T03:30:32;6;96.6
74484;SHT31;62942;52.462;10.846;2023-11-19T03:31:42;6.1;96.7
74484;SHT31;62942;52.462;10.846;2023-11-19T03:32:52;6;96.8
74484;SHT31;62942;52.462;10.846;2023-11-19T03:34:02;6.1;96.9
74484;SHT31;62942;52.462;10.846;2023-11-19T03:35:02;6.1;96.9
74484;SHT31;62942;52.462;10.846;2023-11-19T03:36:12;6.1;96.9
74484;SHT31;62942;52.462;10.846;2023-11-19T03:37:22;6.1;97.1
74484;SHT31;62942;52.462;10.846;2023-11-19T03:38:32;6.1;97.1
74484;SHT31;62942;52.462;10.846;2023-11-19T03:39:42;6.2;97.1
74484;SHT31;62942;52.462;10.846;2023-11-19T03:40:52;6.2;97.3
74484;SHT31;62942;52.462;10.846;2023-11-19T03:41:52;6.2;97.2
74484;SHT31;62942;52.462;10.846;2023-11-19T03:43:02;6.2;97.2
74484;SHT31;62942;52.462;10.846;2023-11-19T03:44:12;6.3;97.3
74484;SHT31;62942;52.462;10.846;2023-11-19T03:45:22;6.3;97.4
74484;SHT31;62942;52.462;10.846;2023-11-19T03:46:22;6.3;97.4
74484;SHT31;62942;52.462;10.846;2023-11-19T03:47:22;6.4;97.5
74484;SHT31;62942;52.462;10.846;2023-11-19T03:48:32;6.4;97.4
74484;SHT31;62942;52.462;10.846;2023-11-19T03:49:32;6.4;97.5
74484;SHT31;62942;52.462;10.846;2023-11-19T03:50:42;6.4;97.6
74484;SHT31;62942;52.462;10.846;2023-11-19T03:51:52;6.5;97.6
74484;SHT31;62942;52.462;10.846;2023-11-19T03:53:02;6.5;97.7
74484;SHT31;62942;52.462;10.846;2023-11-19T03:54:12;6.6;98
74484;SHT31;62942;52.462;10.846;2023-11-19T03:55:22;6.6;98
74484;SHT31;62942;52.462;10.846;2023-11-19T03:56:22;6.7;97.9
74484;SHT31;62942;52.462;10.846;2023-11-19T03:57:32;6.7;97.9
74484;SHT31;62942;52.462;10.846;2023-11-19T03:58:42;6.8;98
74484;SHT31;62942;52.462;10.846;2023-11-19T03:59:52;6.8;98
74484;SHT31;62942;52.462;10.846;2023-11-19T04:01:02;6.8;98
74484;SHT31;62942;52.462;10.846;2023-11-19T04:02:12;6.9;98.1
74484;SHT31;62942;52.462;10.846;2023-11-19T04:03:12;7;98.4
74484;SHT31;62942;52.462;10.846;2023-11-19T04:04:22;7;98.3
74484;SHT31;62942;52.462;10.846;2023-11-19T04:05:22;7.1;98.4
74484;SHT31;62942;52.462;10.846;2023-11-19T04:06:32;7.1;98.4
74484;SHT31;62942;52.462;10.846;2023-11-19T04:07:42;7.2;98.4
74484;SHT31;62942;52.462;10.846;2023-11-19T04:08:52;7.3;98.6
74484;SHT31;62942;52.462;10.846;2023-11-19T04:10:02;7.4;98.7
74484;SHT31;62942;52.462;10.846;2023-11-19T04:11:12;7.4;98.7
74484;SHT31;62942;52.462;10.846;2023-11-19T04:12:22;7.5;98.6
74484;SHT31;62942;52.462;10.846;2023-11-19T04:13:22;7.6;98.6
74484;SHT31;62942;52.462;10.846;2023-11-19T04:14:22;7.6;98.6
74484;SHT31;62942;52.462;10.846;2023-11-19T04:15:32;7.6;98.6
74484;SHT31;62942;52.462;10.846;2023-11-19T04:16:32;7.7;98.5
74484;SHT31;62942;52.462;10.846;2023-11-19T04:17:42;7.7;98.5
74484;SHT31;62942;52.462;10.846;2023-11-19T04:18:52;7.8;98.6
74484;SHT31;62942;52.462;10.846;2023-11-19T04:20:02;7.8;98.7
74484;SHT31;62942;52.462;10.846;2023-11-19T04:21:05;7.9;98.7
74484;SHT31;62942;52.462;10.846;2023-11-19T04:22:12;7.9;98.6
74484;SHT31;62942;52.462;10.846;2023-11-19T04:23:12;7.9;98.6
74484;SHT31;62942;52.462;10.846;2023-11-19T04:24:12;8;98.5
74484;SHT31;62942;52.462;10.846;2023-11-19T04:25:22;8;98.5
74484;SHT31;62942;52.462;10.846;2023-11-19T04:26:22;8;98.5
74484;SHT31;62942;52.462;10.846;2023-11-19T04:27:22;8.1;98.5
74484;SHT31;62942;52.462;10.846;2023-11-19T04:28:32;8.1;98.4
74484;SHT31;62942;52.462;10.846;2023-11-19T04:29:32;8.1;98.4
74484;SHT31;62942;52.462;10.846;2023-11-19T04:30:42;8.1;98.3
74484;SHT31;62942;52.462;10.846;2023-11-19T04:31:52;8.2;98.3
74484;SHT31;62942;52.462;10.846;2023-11-19T04:33:02;8.2;98.3
74484;SHT31;62942;52.462;10.846;2023-11-19T04:34:02;8.2;98.3
74484;SHT31;62942;52.462;10.846;2023-11-19T04:35:13;8.2;98.2
74484;SHT31;62942;52.462;10.846;2023-11-19T04:36:22;8.3;98.1
74484;SHT31;62942;52.462;10.846;2023-11-19T04:37:22;8.3;98.1
74484;SHT31;62942;52.462;10.846;2023-11-19T04:38:32;8.3;98.1
74484;SHT31;62942;52.462;10.846;2023-11-19T04:39:43;8.4;98.1
74484;SHT31;62942;52.462;10.846;2023-11-19T04:40:52;8.4;98
74484;SHT31;62942;52.462;10.846;2023-11-19T04:42:02;8.4;98
74484;SHT31;62942;52.462;10.846;2023-11-19T04:43:02;8.4;97.9
74484;SHT31;62942;52.462;10.846;2023-11-19T04:44:02;8.4;98
74484;SHT31;62942;52.462;10.846;2023-11-19T04:45:02;8.4;98
74484;SHT31;62942;52.462;10.846;2023-11-19T04:46:12;8.4;98
74484;SHT31;62942;52.462;10.846;2023-11-19T04:47:12;8.4;97.9
74484;SHT31;62942;52.462;10.846;2023-11-19T04:48:22;8.5;97.9
74484;SHT31;62942;52.462;10.846;2023-11-19T04:49:22;8.5;97.9
74484;SHT31;62942;52.462;10.846;2023-11-19T04:50:22;8.5;97.8
74484;SHT31;62942;52.462;10.846;2023-11-19T04:51:37;8.5;97.8
74484;SHT31;62942;52.462;10.846;2023-11-19T04:52:42;8.6;97.8
74484;SHT31;62942;52.462;10.846;2023-11-19T04:53:42;8.6;97.8
74484;SHT31;62942;52.462;10.846;2023-11-19T04:54:42;8.6;97.7
74484;SHT31;62942;52.462;10.846;2023-11-19T04:55:52;8.6;97.7
74484;SHT31;62942;52.462;10.846;2023-11-19T04:57:02;8.6;97.7
74484;SHT31;62942;52.462;10.846;2023-11-19T04:58:02;8.7;97.7
74484;SHT31;62942;52.462;10.846;2023-11-19T04:59:02;8.7;97.7
74484;SHT31;62942;52.462;10.846;2023-11-19T05:00:12;8.8;97.6
74484;SHT31;62942;52.462;10.846;2023-11-19T05:01:22;8.8;97.5
74484;SHT31;62942;52.462;10.846;2023-11-19T05:02:22;8.8;97.4
74484;SHT31;62942;52.462;10.846;2023-11-19T05:03:32;8.9;97.4
74484;SHT31;62942;52.462;10.846;2023-11-19T05:04:42;8.9;97.4
74484;SHT31;62942;52.462;10.846;2023-11-19T05:05:52;8.9;97.4
74484;SHT31;62942;52.462;10.846;2023-11-19T05:06:52;8.9;97.3
74484;SHT31;62942;52.462;10.846;2023-11-19T05:08:02;9;97.2
74484;SHT31;62942;52.462;10.846;2023-11-19T05:09:02;9;97.1
74484;SHT31;62942;52.462;10.846;2023-11-19T05:10:12;9;97.1
74484;SHT31;62942;52.462;10.846;2023-11-19T05:11:22;9;97.2
74484;SHT31;62942;52.462;10.846;2023-11-19T05:12:22;9.1;97.1
74484;SHT31;62942;52.462;10.846;2023-11-19T05:13:32;9.1;97
74484;SHT31;62942;52.462;10.846;2023-11-19T05:14:32;9.1;97
74484;SHT31;62942;52.462;10.846;2023-11-19T05:15:42;9.1;96.8
74484;SHT31;62942;52.462;10.846;2023-11-19T05:16:42;9.1;96.8
74484;SHT31;62942;52.462;10.846;2023-11-19T05:17:42;9.1;96.8
74484;SHT31;62942;52.462;10.846;2023-11-19T05:18:42;9.1;96.9
74484;SHT31;62942;52.462;10.846;2023-11-19T05:19:52;9.2;96.9
74484;SHT31;62942;52.462;10.846;2023-11-19T05:20:52;9.2;96.9
74484;SHT31;62942;52.462;10.846;2023-11-19T05:22:02;9.2;96.9
74484;SHT31;62942;52.462;10.846;2023-11-19T05:23:02;9.2;96.9
74484;SHT31;62942;52.462;10.846;2023-11-19T05:24:12;9.2;96.9
74484;SHT31;62942;52.462;10.846;2023-11-19T05:25:22;9.2;96.9
74484;SHT31;62942;52.462;10.846;2023-11-19T05:26:22;9.2;96.9
74484;SHT31;62942;52.462;10.846;2023-11-19T05:27:32;9.2;96.9
74484;SHT31;62942;52.462;10.846;2023-11-19T05:28:42;9.2;96.9
74484;SHT31;62942;52.462;10.846;2023-11-19T05:29:42;9.2;96.9
74484;SHT31;62942;52.462;10.846;2023-11-19T05:30:52;9.2;96.9
74484;SHT31;62942;52.462;10.846;2023-11-19T05:31:52;9.2;96.9
74484;SHT31;62942;52.462;10.846;2023-11-19T05:32:52;9.2;96.8
74484;SHT31;62942;52.462;10.846;2023-11-19T05:34:02;9.2;96.8
74484;SHT31;62942;52.462;10.846;2023-11-19T05:35:12;9.2;97
74484;SHT31;62942;52.462;10.846;2023-11-19T05:36:12;9.2;97
74484;SHT31;62942;52.462;10.846;2023-11-19T05:37:12;9.2;97
74484;SHT31;62942;52.462;10.846;2023-11-19T05:38:12;9.3;97
74484;SHT31;62942;52.462;10.846;2023-11-19T05:39:22;9.3;97.1
74484;SHT31;62942;52.462;10.846;2023-11-19T05:40:32;9.3;97.2
74484;SHT31;62942;52.462;10.846;2023-11-19T05:41:32;9.3;97.1
74484;SHT31;62942;52.462;10.846;2023-11-19T05:42:42;9.3;97.1
74484;SHT31;62942;52.462;10.846;2023-11-19T05:43:52;9.3;97.1
74484;SHT31;62942;52.462;10.846;2023-11-19T05:44:52;9.3;97.1
74484;SHT31;62942;52.462;10.846;2023-11-19T05:46:02;9.3;97.1
74484;SHT31;62942;52.462;10.846;2023-11-19T05:47:12;9.3;97
74484;SHT31;62942;52.462;10.846;2023-11-19T05:48:12;9.4;97.1
74484;SHT31;62942;52.462;10.846;2023-11-19T05:49:22;9.4;97.1
74484;SHT31;62942;52.462;10.846;2023-11-19T05:50:24;9.4;97.1
74484;SHT31;62942;52.462;10.846;2023-11-19T05:51:32;9.4;97
74484;SHT31;62942;52.462;10.846;2023-11-19T05:52:32;9.4;97.1
74484;SHT31;62942;52.462;10.846;2023-11-19T05:53:42;9.4;97.1
74484;SHT31;62942;52.462;10.846;2023-11-19T05:54:52;9.4;97
74484;SHT31;62942;52.462;10.846;2023-11-19T05:55:52;9.4;97
74484;SHT31;62942;52.462;10.846;2023-11-19T05:57:02;9.4;97
74484;SHT31;62942;52.462;10.846;2023-11-19T05:58:02;9.4;97
74484;SHT31;62942;52.462;10.846;2023-11-19T05:59:02;9.4;97
74484;SHT31;62942;52.462;10.846;2023-11-19T06:00:12;9.4;97.1
74484;SHT31;62942;52.462;10.846;2023-11-19T06:01:12;9.4;97.1
74484;SHT31;62942;52.462;10.846;2023-11-19T06:02:22;9.4;97.1
74484;SHT31;62942;52.462;10.846;2023-11-19T06:03:32;9.4;97.3
74484;SHT31;62942;52.462;10.846;2023-11-19T06:04:42;9.4;97.3
74484;SHT31;62942;52.462;10.846;2023-11-19T06:05:43;9.4;97.3
74484;SHT31;62942;52.462;10.846;2023-11-19T06:06:52;9.4;97.2
74484;SHT31;62942;52.462;10.846;2023-11-19T06:08:02;9.4;97.3
74484;SHT31;62942;52.462;10.846;2023-11-19T06:09:02;9.4;97.2
74484;SHT31;62942;52.462;10.846;2023-11-19T06:10:12;9.4;97.1
74484;SHT31;62942;52.462;10.846;2023-11-19T06:11:21;9.4;97.1
74484;SHT31;62942;52.462;10.846;2023-11-19T06:12:22;9.4;97.2
74484;SHT31;62942;52.462;10.846;2023-11-19T06:13:22;9.5;97.2
74484;SHT31;62942;52.462;10.846;2023-11-19T06:14:22;9.5;97.2
74484;SHT31;62942;52.462;10.846;2023-11-19T06:15:22;9.5;97.2
74484;SHT31;62942;52.462;10.846;2023-11-19T06:16:32;9.5;97.2
74484;SHT31;62942;52.462;10.846;2023-11-19T06:17:32;9.5;97.2
74484;SHT31;62942;52.462;10.846;2023-11-19T06:18:32;9.5;97.3
74484;SHT31;62942;52.462;10.846;2023-11-19T06:19:32;9.5;97.3
74484;SHT31;62942;52.462;10.846;2023-11-19T06:20:41;9.5;97.3
74484;SHT31;62942;52.462;10.846;2023-11-19T06:21:42;9.5;97.3
74484;SHT31;62942;52.462;10.846;2023-11-19T06:22:42;9.5;97.4
74484;SHT31;62942;52.462;10.846;2023-11-19T06:23:52;9.5;97.4
74484;SHT31;62942;52.462;10.846;2023-11-19T06:24:52;9.6;97.3
74484;SHT31;62942;52.462;10.846;2023-11-19T06:26:02;9.5;97.2
74484;SHT31;62942;52.462;10.846;2023-11-19T06:27:11;9.6;97.2
74484;SHT31;62942;52.462;10.846;2023-11-19T06:28:11;9.5;97.1
74484;SHT31;62942;52.462;10.846;2023-11-19T06:29:11;9.5;97
74484;SHT31;62942;52.462;10.846;2023-11-19T06:30:12;9.5;97
74484;SHT31;62942;52.462;10.846;2023-11-19T06:31:22;9.5;97
74484;SHT31;62942;52.462;10.846;2023-11-19T06:32:22;9.5;96.9
74484;SHT31;62942;52.462;10.846;2023-11-19T06:33:31;9.5;97
74484;SHT31;62942;52.462;10.846;2023-11-19T06:34:41;9.5;96.9
74484;SHT31;62942;52.462;10.846;2023-11-19T06:35:42;9.4;96.9
74484;SHT31;62942;52.462;10.846;2023-11-19T06:36:42;9.5;96.9
74484;SHT31;62942;52.462;10.846;2023-11-19T06:37:52;9.5;96.9
74484;SHT31;62942;52.462;10.846;2023-11-19T06:38:52;9.5;97
74484;SHT31;62942;52.462;10.846;2023-11-19T06:40:02;9.5;96.9
74484;SHT31;62942;52.462;10.846;2023-11-19T06:41:01;9.5;97
74484;SHT31;62942;52.462;10.846;2023-11-19T06:42:02;9.5;97
74484;SHT31;62942;52.462;10.846;2023-11-19T06:43:12;9.6;97
74484;SHT31;62942;52.462;10.846;2023-11-19T06:44:12;9.5;97
74484;SHT31;62942;52.462;10.846;2023-11-19T06:45:12;9.6;97
74484;SHT31;62942;52.462;10.846;2023-11-19T06:46:22;9.6;97.1
74484;SHT31;62942;52.462;10.846;2023-11-19T06:47:31;9.6;96.9
74484;SHT31;62942;52.462;10.846;2023-11-19T06:48:31;9.6;96.9
74484;SHT31;62942;52.462;10.846;2023-11-19T06:49:32;9.7;96.7
74484;SHT31;62942;52.462;10.846;2023-11-19T06:50:42;9.7;96.7
74484;SHT31;62942;52.462;10.846;2023-11-19T06:51:42;9.7;96.6
74484;SHT31;62942;52.462;10.846;2023-11-19T06:52:51;9.7;96.7
74484;SHT31;62942;52.462;10.846;2023-11-19T06:54:02;9.7;96.6
74484;SHT31;62942;52.462;10.846;2023-11-19T06:55:02;9.7;96.6
74484;SHT31;62942;52.462;10.846;2023-11-19T06:56:20;9.7;96.7
74484;SHT31;62942;52.462;10.846;2023-11-19T06:57:21;9.7;96.7
74484;SHT31;62942;52.462;10.846;2023-11-19T06:58:21;9.7;96.7
74484;SHT31;62942;52.462;10.846;2023-11-19T06:59:21;9.7;96.7
74484;SHT31;62942;52.462;10.846;2023-11-19T07:00:21;9.7;96.6
74484;SHT31;62942;52.462;10.846;2023-11-19T07:01:34;9.7;96.6
74484;SHT31;62942;52.462;10.846;2023-11-19T07:02:41;9.7;96.6
74484;SHT31;62942;52.462;10.846;2023-11-19T07:03:41;9.7;96.6
74484;SHT31;62942;52.462;10.846;2023-11-19T07:04:41;9.7;96.6
74484;SHT31;62942;52.462;10.846;2023-11-19T07:05:51;9.7;96.6
74484;SHT31;62942;52.462;10.846;2023-11-19T07:07:02;9.8;96.6
74484;SHT31;62942;52.462;10.846;2023-11-19T07:08:11;9.7;96.6
74484;SHT31;62942;52.462;10.846;2023-11-19T07:09:11;9.8;96.6
74484;SHT31;62942;52.462;10.846;2023-11-19T07:10:11;9.8;96.6
74484;SHT31;62942;52.462;10.846;2023-11-19T07:11:21;9.8;96.6
74484;SHT31;62942;52.462;10.846;2023-11-19T07:12:21;9.8;96.6
74484;SHT31;62942;52.462;10.846;2023-11-19T07:13:31;9.8;96.6